Time;durP1;ratioP1;P1;durP2;ratioP2;P2;SDS_P1;SDS_P2;PMS_P1;PMS_P2;Temp;Humidity;BMP_temperature;BMP_pressure;BME280_temperature;BME280_humidity;BME280_pressure;Samples;Min_cycle;Max_cycle;Signal;HPM_P1;HPM_P2
2022/07/10 00:02:08;;;;;;;573.27;253.63;;;11.50;61.60;;;;;;6124973;23;20170;-90
2022/07/10 00:04:35;;;;;;;495.77;246.03;;;11.50;99.90;;;;;;6125017;23;20198;-88
2022/07/10 00:07:03;;;;;;;563.23;246.37;;;11.50;42.00;;;;;;6124792;23;20636;-87
2022/07/10 00:09:31;;;;;;;570.00;244.30;;;11.50;76.60;;;;;;6125323;23;20246;-88
2022/07/10 00:11:59;;;;;;;630.00;244.13;;;11.50;99.90;;;;;;6124938;23;20170;-90
2022/07/10 00:14:26;;;;;;;542.30;247.77;;;11.50;99.90;;;;;;6125207;23;20238;-89
2022/07/10 00:16:54;;;;;;;555.70;241.17;;;11.50;99.90;;;;;;6125419;23;20199;-90
2022/07/10 00:19:21;;;;;;;379.43;244.23;;;11.50;99.90;;;;;;6125421;23;20170;-89
2022/07/10 00:21:48;;;;;;;412.13;237.37;;;11.40;99.90;;;;;;6125472;23;20221;-90
2022/07/10 00:24:15;;;;;;;403.90;241.93;;;11.40;99.90;;;;;;6125272;23;20262;-89
2022/07/10 00:26:43;;;;;;;417.10;245.17;;;11.40;99.90;;;;;;6124805;23;20546;-90
2022/07/10 00:29:11;;;;;;;458.87;240.33;;;11.40;99.90;;;;;;6125104;23;20162;-90
2022/07/10 00:31:38;;;;;;;495.90;242.70;;;11.30;99.90;;;;;;6125506;23;20545;-89
2022/07/10 00:34:06;;;;;;;532.70;240.83;;;11.30;99.90;;;;;;6124969;23;20246;-89
2022/07/10 00:36:33;;;;;;;555.40;243.10;;;11.30;99.90;;;;;;6124880;23;20594;-89
2022/07/10 00:39:00;;;;;;;514.60;238.67;;;11.20;99.90;;;;;;6125170;23;20170;-89
2022/07/10 00:41:27;;;;;;;545.10;240.23;;;11.20;99.90;;;;;;6124987;23;20167;-90
2022/07/10 00:43:56;;;;;;;573.93;244.47;;;11.20;1.00;;;;;;6124973;23;20613;-88
2022/07/10 00:46:26;;;;;;;573.50;231.77;;;11.20;1.00;;;;;;6124803;23;20171;-89
2022/07/10 00:48:54;;;;;;;618.60;234.97;;;11.20;1.00;;;;;;6125340;23;20172;-91
2022/07/10 00:51:23;;;;;;;634.10;222.97;;;11.10;1.00;;;;;;6125348;23;20168;-88
2022/07/10 00:53:51;;;;;;;641.57;222.03;;;11.10;1.00;;;;;;6125276;23;20522;-90
2022/07/10 00:56:19;;;;;;;668.67;219.23;;;11.10;1.00;;;;;;6124870;23;20174;-90
2022/07/10 00:58:47;;;;;;;664.03;221.17;;;11.10;1.00;;;;;;6124599;23;20225;-89
2022/07/10 01:01:16;;;;;;;668.03;217.50;;;11.10;1.00;;;;;;6125143;23;20167;-89
2022/07/10 01:03:45;;;;;;;668.73;223.13;;;11.10;63.70;;;;;;6124573;23;20171;-91
2022/07/10 01:06:13;;;;;;;662.53;218.17;;;11.10;99.90;;;;;;6124724;23;20190;-90
2022/07/10 01:08:40;;;;;;;656.50;205.83;;;11.10;99.90;;;;;;6127123;23;20167;-88
2022/07/10 01:11:09;;;;;;;652.67;205.03;;;11.10;99.90;;;;;;6126808;23;20282;-90
2022/07/10 01:13:36;;;;;;;642.50;207.90;;;11.10;99.90;;;;;;6127245;23;20167;-90
2022/07/10 01:16:04;;;;;;;637.50;204.07;;;11.10;99.90;;;;;;6126333;23;20209;-88
2022/07/10 01:18:31;;;;;;;637.10;206.67;;;11.10;99.90;;;;;;6126852;23;20173;-89
2022/07/10 01:21:00;;;;;;;650.87;212.17;;;11.10;99.90;;;;;;6127079;23;20166;-87
2022/07/10 01:23:27;;;;;;;657.23;212.47;;;11.10;99.90;;;;;;6126922;23;20169;-89
2022/07/10 01:25:54;;;;;;;660.53;210.67;;;11.10;99.90;;;;;;6126792;23;20187;-90
2022/07/10 01:28:22;;;;;;;657.60;214.07;;;11.10;99.90;;;;;;6126825;23;20189;-90
2022/07/10 01:30:50;;;;;;;655.20;214.83;;;11.10;99.90;;;;;;6126410;23;20171;-90
2022/07/10 01:33:17;;;;;;;602.63;232.00;;;11.10;1.00;;;;;;6126442;23;20248;-88
2022/07/10 01:35:45;;;;;;;635.00;227.23;;;11.10;1.00;;;;;;6126876;23;20201;-88
2022/07/10 01:38:13;;;;;;;599.80;219.53;;;11.10;1.00;;;;;;6126585;23;20163;-91
2022/07/10 01:40:41;;;;;;;484.53;232.83;;;11.10;1.00;;;;;;6126601;23;20182;-89
2022/07/10 01:43:08;;;;;;;524.50;224.97;;;11.10;1.00;;;;;;6126836;23;20174;-89
2022/07/10 01:45:35;;;;;;;529.00;230.67;;;11.10;1.00;;;;;;6126665;23;20187;-91
2022/07/10 01:48:02;;;;;;;499.77;226.17;;;11.10;1.00;;;;;;6126297;23;20245;-90
2022/07/10 01:50:30;;;;;;;609.00;230.57;;;11.10;12.10;;;;;;6126610;23;20238;-90
2022/07/10 01:52:58;;;;;;;609.53;225.70;;;11.10;99.90;;;;;;6126532;23;20175;-90
2022/07/10 01:55:27;;;;;;;631.57;224.20;;;11.10;99.90;;;;;;6127023;23;20627;-90
2022/07/10 01:57:54;;;;;;;593.60;233.40;;;11.10;22.50;;;;;;6126938;23;20168;-89
2022/07/10 02:00:21;;;;;;;545.93;232.80;;;11.10;99.90;;;;;;6126132;23;20251;-90
2022/07/10 02:05:30;;;;;;;570.43;231.50;;;11.10;99.90;;;;;;6124784;23;20709;-90
2022/07/10 02:07:57;;;;;;;498.53;226.60;;;11.20;99.90;;;;;;6126841;23;20170;-90
2022/07/10 02:10:24;;;;;;;526.37;223.37;;;11.20;1.00;;;;;;6126767;23;20664;-89
2022/07/10 02:12:53;;;;;;;595.10;223.23;;;11.20;1.00;;;;;;6126010;23;20167;-87
2022/07/10 02:15:20;;;;;;;619.43;228.17;;;11.20;1.00;;;;;;6126241;23;20238;-88
2022/07/10 02:17:47;;;;;;;594.10;232.73;;;11.20;1.00;;;;;;6126242;23;20224;-90
2022/07/10 02:20:14;;;;;;;556.57;232.80;;;11.30;1.00;;;;;;6126215;23;20182;-91
2022/07/10 02:22:42;;;;;;;547.80;227.47;;;11.30;1.00;;;;;;6126286;23;20195;-91
2022/07/10 02:25:09;;;;;;;540.10;224.87;;;11.30;1.00;;;;;;6126280;23;20247;-89
2022/07/10 02:27:37;;;;;;;548.23;233.17;;;11.30;99.90;;;;;;6126490;23;20168;-89
2022/07/10 02:30:07;;;;;;;547.63;233.40;;;11.40;99.90;;;;;;6126723;23;20204;-89
2022/07/10 02:32:34;;;;;;;554.63;232.10;;;11.40;99.90;;;;;;6126263;23;20215;-89
2022/07/10 02:35:02;;;;;;;507.97;234.97;;;11.40;1.00;;;;;;6126519;23;20252;-89
2022/07/10 02:37:29;;;;;;;511.83;229.83;;;11.50;1.00;;;;;;6126457;23;20631;-90
2022/07/10 02:39:56;;;;;;;426.40;230.27;;;11.60;1.00;;;;;;6126626;23;20172;-90
2022/07/10 02:42:24;;;;;;;458.17;236.10;;;11.60;1.00;;;;;;6126095;23;20554;-90
2022/07/10 02:44:51;;;;;;;459.97;239.47;;;11.70;1.00;;;;;;6125852;23;20192;-89
2022/07/10 02:47:20;;;;;;;459.73;240.17;;;11.70;1.00;;;;;;6125901;23;20246;-91
2022/07/10 02:49:47;;;;;;;455.53;239.47;;;11.70;1.00;;;;;;6125570;23;20657;-90
2022/07/10 02:52:15;;;;;;;442.97;244.47;;;11.70;1.00;;;;;;6126158;23;20207;-90
2022/07/10 02:54:42;;;;;;;426.87;243.97;;;11.80;1.00;;;;;;6125902;23;20535;-91
2022/07/10 02:57:09;;;;;;;451.53;238.07;;;11.80;1.00;;;;;;6125944;23;20165;-89
2022/07/10 02:59:37;;;;;;;441.97;242.50;;;11.80;99.90;;;;;;6126437;23;20175;-90
2022/07/10 03:02:05;;;;;;;442.93;243.37;;;11.80;99.90;;;;;;6125762;23;20176;-88
2022/07/10 03:04:33;;;;;;;473.80;234.40;;;11.80;99.90;;;;;;6125867;23;20248;-86
2022/07/10 03:07:00;;;;;;;506.67;241.67;;;11.80;99.90;;;;;;6125715;23;20665;-86
2022/07/10 03:09:27;;;;;;;483.33;247.23;;;11.80;99.90;;;;;;6126028;23;20173;-86
2022/07/10 03:11:54;;;;;;;450.70;242.07;;;11.80;99.90;;;;;;6125876;23;20174;-86
2022/07/10 03:14:21;;;;;;;384.73;247.90;;;11.90;99.90;;;;;;6125591;23;20172;-86
2022/07/10 03:16:48;;;;;;;394.13;243.20;;;11.90;99.90;;;;;;6125975;23;20247;-85
2022/07/10 03:19:16;;;;;;;416.70;246.27;;;11.90;99.90;;;;;;6130433;23;20180;-86
2022/07/10 03:21:45;;;;;;;438.40;241.50;;;12.00;99.90;;;;;;6125601;23;20172;-87
2022/07/10 03:24:12;;;;;;;462.77;248.80;;;12.00;42.10;;;;;;6125603;23;20176;-86
2022/07/10 03:26:40;;;;;;;479.17;237.23;;;12.00;1.00;;;;;;6125533;23;20182;-86
2022/07/10 03:29:07;;;;;;;453.73;246.33;;;12.00;1.00;;;;;;6125765;23;20232;-87
2022/07/10 03:31:34;;;;;;;433.50;247.43;;;12.00;1.00;;;;;;6125729;23;20224;-87
2022/07/10 03:34:01;;;;;;;456.57;245.80;;;12.00;1.00;;;;;;6125686;23;20544;-88
2022/07/10 03:36:28;;;;;;;433.03;248.30;;;12.00;1.00;;;;;;6125938;23;20231;-87
2022/07/10 03:38:56;;;;;;;430.27;249.87;;;12.10;99.90;;;;;;6125428;23;20232;-86
2022/07/10 03:41:23;;;;;;;415.17;249.17;;;12.10;99.90;;;;;;6125545;23;20923;-87
2022/07/10 03:43:50;;;;;;;425.23;255.90;;;12.20;99.90;;;;;;6125516;23;20180;-87
2022/07/10 03:46:17;;;;;;;432.37;260.73;;;12.30;99.90;;;;;;6125699;23;20231;-86
2022/07/10 03:48:44;;;;;;;406.40;267.80;;;12.40;99.90;;;;;;6125759;23;20551;-86
2022/07/10 03:51:11;;;;;;;330.03;260.47;;;12.50;99.90;;;;;;6125255;23;20241;-86
2022/07/10 03:53:39;;;;;;;375.87;261.43;;;12.50;1.00;;;;;;6125784;23;20170;-86
2022/07/10 03:56:08;;;;;;;388.77;261.03;;;12.50;1.00;;;;;;6125680;23;20176;-85
2022/07/10 03:58:34;;;;;;;425.30;269.10;;;12.50;1.00;;;;;;6125276;23;20480;-86
2022/07/10 04:01:01;;;;;;;466.77;273.10;;;12.50;1.00;;;;;;6125613;23;20181;-85
2022/07/10 04:03:28;;;;;;;470.77;275.30;;;12.60;1.00;;;;;;6125491;23;20176;-87
2022/07/10 04:05:55;;;;;;;478.33;271.07;;;12.60;99.90;;;;;;6125100;23;20255;-86
2022/07/10 04:08:22;;;;;;;465.53;280.23;;;12.70;1.00;;;;;;6125149;23;20177;-89
2022/07/10 04:10:49;;;;;;;460.27;278.90;;;12.70;1.00;;;;;;6125603;23;20164;-86
2022/07/10 04:13:18;;;;;;;480.03;285.13;;;12.80;1.00;;;;;;6125587;23;20174;-87
2022/07/10 04:15:45;;;;;;;476.53;281.37;;;12.90;1.00;;;;;;6125407;23;20178;-86
2022/07/10 04:18:12;;;;;;;435.83;291.07;;;13.10;1.00;;;;;;6125220;23;20515;-86
2022/07/10 04:20:39;;;;;;;427.53;294.00;;;13.20;1.00;;;;;;6125638;23;20180;-86
2022/07/10 04:23:06;;;;;;;419.07;293.80;;;13.30;99.90;;;;;;6128289;23;20171;-85
2022/07/10 04:25:33;;;;;;;409.73;300.90;;;13.40;1.00;;;;;;6125584;23;20192;-86
2022/07/10 04:28:00;;;;;;;418.03;314.83;;;13.90;99.90;;;;;;6124983;23;20616;-86
2022/07/10 04:30:28;;;;;;;288.23;261.93;;;14.20;1.00;;;;;;6125362;23;20185;-87
2022/07/10 04:32:56;;;;;;;323.10;291.87;;;14.30;1.00;;;;;;6124760;23;20620;-85
2022/07/10 04:35:23;;;;;;;347.57;310.50;;;14.40;48.80;;;;;;6125566;23;20178;-87
2022/07/10 04:37:50;;;;;;;331.73;300.40;;;14.40;1.00;;;;;;6125402;23;20174;-86
2022/07/10 04:40:17;;;;;;;335.13;302.87;;;14.40;99.90;;;;;;6125415;23;20202;-86
2022/07/10 04:42:44;;;;;;;356.97;317.40;;;14.40;1.00;;;;;;6124796;23;20174;-85
2022/07/10 04:45:12;;;;;;;367.27;326.67;;;14.40;1.00;;;;;;6125365;23;20182;-85
2022/07/10 04:47:40;;;;;;;348.20;312.07;;;14.30;99.90;;;;;;6124976;23;20220;-87
2022/07/10 04:50:09;;;;;;;365.30;324.97;;;14.40;99.90;;;;;;6125487;23;20168;-87
2022/07/10 04:52:36;;;;;;;391.70;324.70;;;14.30;99.90;;;;;;6126646;23;20170;-86
2022/07/10 04:55:03;;;;;;;409.97;327.60;;;14.30;99.90;;;;;;6124911;23;20196;-86
2022/07/10 04:57:30;;;;;;;415.47;328.30;;;14.30;99.90;;;;;;6125254;23;20177;-86
2022/07/10 04:59:57;;;;;;;350.43;314.60;;;14.30;99.90;;;;;;6125290;23;20169;-86
2022/07/10 05:02:24;;;;;;;295.77;268.93;;;14.40;48.30;;;;;;6124853;23;20629;-86
2022/07/10 05:04:53;;;;;;;313.87;283.43;;;14.40;1.00;;;;;;6124931;23;20182;-86
2022/07/10 05:07:20;;;;;;;333.03;301.63;;;14.40;1.00;;;;;;6125177;23;20197;-87
2022/07/10 05:09:47;;;;;;;357.90;319.67;;;14.40;1.00;;;;;;6124819;23;20174;-85
2022/07/10 05:12:14;;;;;;;362.67;325.57;;;14.50;1.00;;;;;;6124979;23;20172;-86
2022/07/10 05:14:41;;;;;;;373.70;329.27;;;14.60;1.00;;;;;;6125371;23;20181;-86
2022/07/10 05:17:08;;;;;;;355.43;318.47;;;14.70;1.00;;;;;;6124834;23;20202;-87
2022/07/10 05:19:35;;;;;;;350.50;315.67;;;14.80;99.90;;;;;;6124852;23;20178;-87
2022/07/10 05:22:04;;;;;;;350.40;316.23;;;14.90;1.00;;;;;;6125050;23;20176;-86
2022/07/10 05:24:31;;;;;;;367.47;330.17;;;15.20;1.00;;;;;;6125137;23;20232;-86
2022/07/10 05:26:58;;;;;;;374.70;337.50;;;15.40;1.00;;;;;;6125222;23;20198;-87
2022/07/10 05:29:25;;;;;;;383.77;344.50;;;15.60;99.90;;;;;;6125430;23;20175;-86
2022/07/10 05:31:52;;;;;;;373.13;334.67;;;15.80;1.00;;;;;;6125135;23;20176;-86
2022/07/10 05:34:19;;;;;;;461.53;388.07;;;15.90;1.00;;;;;;6124610;23;20181;-86
2022/07/10 05:36:46;;;;;;;487.60;375.47;;;16.20;16.70;;;;;;6124548;23;20178;-87
2022/07/10 05:39:15;;;;;;;423.95;364.80;;;16.50;1.00;;;;;;6125013;23;20172;-87
2022/07/10 05:41:42;;;;;;;379.25;338.55;;;16.80;99.90;;;;;;6124307;23;20178;-88
2022/07/10 05:44:09;;;;;;;186.63;139.65;;;17.20;1.00;;;;;;6124729;23;20178;-87
2022/07/10 05:46:35;;;;;;;;;;;18.10;18.30;;;;;;6124587;23;20658;-86
2022/07/10 05:49:02;;;;;;;;;;;18.70;1.00;;;;;;6124260;23;20562;-87
2022/07/10 05:51:29;;;;;;;257.27;234.70;;;19.20;99.90;;;;;;6124975;23;20115;-86
2022/07/10 05:53:56;;;;;;;239.48;218.63;;;19.20;99.90;;;;;;6125140;23;20171;-86
2022/07/10 05:56:26;;;;;;;230.07;210.35;;;19.00;99.90;;;;;;6127236;23;20171;-87
2022/07/10 05:58:55;;;;;;;54.15;49.75;;;18.70;1.00;;;;;;6126688;23;20176;-86
2022/07/10 06:01:22;;;;;;;64.55;58.75;;;18.40;1.00;;;;;;6126720;23;20171;-87
2022/07/10 06:03:49;;;;;;;47.40;43.20;;;18.20;1.00;;;;;;6126756;23;20174;-86
2022/07/10 06:06:16;;;;;;;41.30;36.92;;;18.40;99.90;;;;;;6126586;23;20202;-86
2022/07/10 06:08:44;;;;;;;74.00;46.78;;;19.30;99.90;;;;;;6126338;23;20171;-86
2022/07/10 06:11:11;;;;;;;57.15;38.63;;;19.90;1.00;;;;;;6126512;23;20167;-87
2022/07/10 06:13:39;;;;;;;61.58;41.75;;;20.10;1.00;;;;;;6126647;23;20218;-87
2022/07/10 06:16:07;;;;;;;50.95;37.38;;;20.00;99.90;;;;;;6126228;23;20556;-87
2022/07/10 06:18:34;;;;;;;85.05;50.00;;;19.90;99.90;;;;;;6126424;23;20163;-86
2022/07/10 06:21:01;;;;;;;84.45;55.40;;;19.70;99.90;;;;;;6126541;23;20164;-86
2022/07/10 06:23:28;;;;;;;71.75;40.20;;;19.60;99.90;;;;;;6126566;23;20167;-86
2022/07/10 06:25:55;;;;;;;54.30;39.05;;;19.30;99.90;;;;;;6125922;23;20653;-87
2022/07/10 06:28:22;;;;;;;49.60;20.70;;;19.00;58.30;;;;;;6126235;23;20171;-85
2022/07/10 06:30:51;;;;;;;40.08;14.82;;;18.60;99.90;;;;;;6126510;23;20254;-86
2022/07/10 06:33:18;;;;;;;63.60;23.38;;;18.40;99.90;;;;;;6126111;23;20171;-86
2022/07/10 06:35:45;;;;;;;62.08;42.50;;;18.20;99.90;;;;;;6126422;23;20546;-87
2022/07/10 06:38:12;;;;;;;46.72;22.48;;;18.00;99.90;;;;;;6126311;23;20647;-86
2022/07/10 06:40:39;;;;;;;9.75;4.35;;;18.10;1.00;;;;;;6126262;23;20179;-85
2022/07/10 06:43:06;;;;;;;9.18;4.25;;;18.40;1.00;;;;;;6125758;23;20645;-87
2022/07/10 06:45:33;;;;;;;7.47;4.22;;;18.60;1.00;;;;;;6126310;23;20171;-86
2022/07/10 06:48:01;;;;;;;12.77;6.72;;;18.60;99.90;;;;;;6126120;23;20195;-86
2022/07/10 06:50:30;;;;;;;26.17;13.13;;;18.50;99.90;;;;;;6125834;23;20685;-86
2022/07/10 06:52:58;;;;;;;117.10;107.93;;;18.40;99.90;;;;;;6126166;23;20195;-88
2022/07/10 06:55:26;;;;;;;76.35;69.20;;;18.20;99.90;;;;;;6126294;23;20485;-86
2022/07/10 06:57:53;;;;;;;100.47;79.68;;;18.00;99.90;;;;;;6125894;23;20228;-86
2022/07/10 07:00:21;;;;;;;78.00;69.70;;;18.00;99.90;;;;;;6125673;23;20272;-85
2022/07/10 07:02:48;;;;;;;72.22;41.78;;;18.20;99.90;;;;;;6125975;23;20611;-87
2022/07/10 07:05:17;;;;;;;47.95;26.95;;;18.40;99.90;;;;;;6126297;23;20502;-87
2022/07/10 07:07:44;;;;;;;21.65;14.27;;;18.60;99.90;;;;;;6125784;23;20191;-87
2022/07/10 07:10:12;;;;;;;28.40;15.93;;;18.90;99.90;;;;;;6126101;23;20173;-87
2022/07/10 07:12:40;;;;;;;48.28;21.73;;;19.10;99.90;;;;;;6126032;23;20476;-87
2022/07/10 07:15:08;;;;;;;27.55;14.82;;;19.40;99.90;;;;;;6125582;23;20620;-87
2022/07/10 07:17:56;;;;;;;16.38;7.30;;;19.60;99.90;;;;;;6125935;23;20415;-87
2022/07/10 07:23:12;;;;;;;25.80;17.65;;;20.00;99.90;;;;;;6125836;23;20157;-87
2022/07/10 07:25:41;;;;;;;21.40;13.38;;;20.20;1.00;;;;;;6126061;23;20167;-87
2022/07/10 07:28:09;;;;;;;29.77;26.70;;;20.20;1.00;;;;;;6125326;23;20211;-86
2022/07/10 07:30:36;;;;;;;38.75;34.70;;;19.80;1.00;;;;;;6125446;23;20198;-86
2022/07/10 07:33:03;;;;;;;142.10;131.80;;;19.40;1.00;;;;;;6125658;23;20173;-87
2022/07/10 07:35:32;;;;;;;159.90;148.43;;;19.10;1.00;;;;;;6125916;23;20239;-86
2022/07/10 07:37:59;;;;;;;176.27;163.45;;;18.90;1.00;;;;;;6125830;23;20171;-87
2022/07/10 07:40:26;;;;;;;123.05;114.35;;;18.70;1.00;;;;;;6125616;23;20175;-87
2022/07/10 07:42:54;;;;;;;46.22;43.10;;;18.70;1.00;;;;;;6125524;23;20175;-87
2022/07/10 07:45:22;;;;;;;61.25;57.25;;;18.80;2.30;;;;;;6125818;23;20558;-87
2022/07/10 07:47:50;;;;;;;54.95;51.30;;;19.00;55.60;;;;;;6125507;23;20570;-87
2022/07/10 07:50:19;;;;;;;51.65;48.15;;;19.30;78.30;;;;;;6125439;23;20171;-88
2022/07/10 07:52:48;;;;;;;50.78;47.50;;;19.70;38.60;;;;;;6126820;23;20171;-87
2022/07/10 07:55:17;;;;;;;43.00;40.13;;;20.00;1.00;;;;;;6125624;23;20171;-87
2022/07/10 07:57:44;;;;;;;53.53;49.83;;;20.20;1.00;;;;;;6125267;23;20181;-87
2022/07/10 08:00:14;;;;;;;101.50;94.45;;;20.20;1.00;;;;;;6125507;23;20167;-87
2022/07/10 08:02:41;;;;;;;134.25;125.13;;;19.90;1.00;;;;;;6125208;23;20236;-87
2022/07/10 08:05:10;;;;;;;226.52;209.90;;;19.60;1.00;;;;;;6125173;23;20178;-87
2022/07/10 08:07:39;;;;;;;273.98;253.45;;;19.30;1.00;;;;;;6124973;23;20728;-86
2022/07/10 08:10:10;;;;;;;317.98;293.55;;;19.00;1.00;;;;;;6125626;23;20231;-87
2022/07/10 08:12:38;;;;;;;348.75;320.42;;;18.80;1.00;;;;;;6125557;23;20529;-85
2022/07/10 08:15:07;;;;;;;432.15;395.60;;;18.50;1.00;;;;;;6125739;23;20174;-88
2022/07/10 08:17:40;;;;;;;390.80;358.92;;;18.40;1.00;;;;;;6131575;23;20199;-90
2022/07/10 08:23:00;;;;;;;338.00;311.42;;;18.30;1.00;;;;;;6174293;23;20288;-88
2022/07/10 08:28:17;;;;;;;372.50;342.13;;;18.60;1.00;;;;;;6195983;23;20284;-89
2022/07/10 08:30:46;;;;;;;413.58;379.42;;;18.80;4.10;;;;;;6205679;23;20169;-93
2022/07/10 08:33:13;;;;;;;537.15;485.00;;;18.80;1.00;;;;;;6195917;23;20168;-87
2022/07/10 08:35:40;;;;;;;512.58;465.38;;;18.60;1.00;;;;;;6184473;23;20175;-89
2022/07/10 08:38:09;;;;;;;501.83;454.20;;;18.50;1.00;;;;;;6184819;23;20165;-87
2022/07/10 08:40:37;;;;;;;497.92;453.08;;;18.50;1.00;;;;;;6184392;23;20170;-88
2022/07/10 08:43:05;;;;;;;495.17;449.15;;;18.80;99.90;;;;;;6184634;23;20172;-87
2022/07/10 08:45:35;;;;;;;351.42;324.15;;;19.10;99.90;;;;;;6195009;23;20169;-91
2022/07/10 08:48:13;;;;;;;448.38;410.27;;;19.80;99.90;;;;;;6211177;23;20201;-91
2022/07/10 08:50:53;;;;;;;;;;;20.80;99.90;;;;;;6197656;23;20021;-88
2022/07/10 08:53:32;;;;;;;;;;;22.20;99.90;;;;;;6187482;23;19920;-90
2022/07/10 08:58:52;;;;;;;;;;;22.50;1.00;;;;;;6208611;23;19923;-92
2022/07/10 09:01:22;;;;;;;;;;;22.30;1.00;;;;;;6204598;23;19916;-89
2022/07/10 09:03:49;;;;;;;;;;;21.90;1.00;;;;;;6192343;23;20246;-89
2022/07/10 09:06:20;;;;;;;;;;;21.60;1.00;;;;;;6191428;23;20256;-88
2022/07/10 09:09:00;;;;;;;;;;;21.50;1.00;;;;;;6187374;23;19916;-86
2022/07/10 09:11:30;;;;;;;;;;;21.20;1.00;;;;;;6184803;23;19927;-86
2022/07/10 09:13:58;;;;;;;;;;;21.20;1.00;;;;;;6185113;23;19923;-87
2022/07/10 09:16:25;;;;;;;;;;;21.20;1.00;;;;;;6185107;23;19916;-87
2022/07/10 09:18:52;;;;;;;;;;;21.10;1.00;;;;;;6184988;23;19916;-86
2022/07/10 09:21:18;;;;;;;;;;;21.30;1.00;;;;;;6184945;23;19920;-87
2022/07/10 09:23:45;;;;;;;;;;;21.50;1.00;;;;;;6185179;23;19920;-87
2022/07/10 09:26:18;;;;;;;;;;;21.50;1.00;;;;;;6192705;23;19917;-92
2022/07/10 09:28:47;;;;;;;;;;;21.30;1.00;;;;;;6205041;23;19924;-90
2022/07/10 09:31:17;;;;;;;;;;;20.80;1.00;;;;;;6209615;23;19900;-93
2022/07/10 09:33:46;;;;;;;;;;;20.30;1.00;;;;;;6205869;23;19916;-89
2022/07/10 09:36:18;;;;;;;;;;;20.00;1.00;;;;;;6207515;23;19926;-91
2022/07/10 09:38:57;;;;;;;;;;;19.90;1.00;;;;;;6214511;23;19907;-91
2022/07/10 09:41:30;;;;;;;;;;;20.10;1.00;;;;;;6213751;23;20271;-92
2022/07/10 09:44:03;;;;;;;;;;;20.90;1.00;;;;;;6213519;23;19923;-91
2022/07/10 09:46:34;;;;;;;;;;;21.60;1.00;;;;;;6213637;23;19908;-89
2022/07/10 09:49:26;;;;;;;;;;;21.90;1.00;;;;;;6213377;23;19920;-92
2022/07/10 09:54:38;;;;;;;;;;;22.00;1.00;;;;;;6164371;23;19921;-86
2022/07/10 09:57:22;;;;;;;;;;;21.70;1.00;;;;;;6210138;23;19920;-88
2022/07/10 10:02:43;;;;;;;;;;;20.90;1.00;;;;;;6207148;23;19966;-88
2022/07/10 10:05:14;;;;;;;;;;;20.40;1.00;;;;;;6204284;23;19940;-89
2022/07/10 10:07:51;;;;;;;;;;;20.10;1.00;;;;;;6196244;23;19924;-90
2022/07/10 10:10:28;;;;;;;;;;;19.90;1.00;;;;;;6192593;23;19926;-92
2022/07/10 10:13:00;;;;;;;;;;;19.80;1.00;;;;;;6206585;23;19900;-94
2022/07/10 10:15:36;;;;;;;;;;;19.60;1.00;;;;;;6212189;23;19920;-90
2022/07/10 10:18:03;;;;;;;;;;;19.60;1.00;;;;;;6200134;23;19915;-89
2022/07/10 10:20:51;;;;;;;;;;;19.70;1.00;;;;;;6185922;23;20243;-88
2022/07/10 10:23:20;;;;;;;;;;;19.70;1.00;;;;;;6188781;23;19970;-86
2022/07/10 10:25:50;;;;;;;;;;;19.90;1.00;;;;;;6211987;23;19900;-91
2022/07/10 10:28:37;;;;;;;;;;;20.20;1.00;;;;;;6198731;23;19940;-91
2022/07/10 10:31:06;;;;;;;;;;;20.50;1.00;;;;;;6208682;23;19916;-88
2022/07/10 10:33:51;;;;;;;;;;;20.80;1.00;;;;;;6185924;23;19916;-88
2022/07/10 10:36:37;;;;;;;;;;;21.20;1.00;;;;;;6191559;23;19916;-87
2022/07/10 10:39:12;;;;;;;;;;;21.60;1.00;;;;;;6194158;23;19900;-91
2022/07/10 10:41:40;;;;;;;;;;;21.90;1.00;;;;;;6213487;23;19923;-87
2022/07/10 10:44:21;;;;;;;;;;;22.30;1.00;;;;;;6197338;23;19920;-90
2022/07/10 10:47:22;;;;;;;;;;;22.40;1.00;;;;;;6212248;23;19949;-90
2022/07/10 10:50:09;;;;;;;;;;;22.50;1.00;;;;;;6205933;23;19916;-90
2022/07/10 10:52:36;;;;;;;;;;;22.30;1.00;;;;;;6190376;23;19916;-87
2022/07/10 10:55:07;;;;;;;;;;;21.90;1.00;;;;;;6190670;23;19923;-88
2022/07/10 10:57:51;;;;;;;;;;;21.50;1.00;;;;;;6192736;23;19948;-87
2022/07/10 11:00:37;;;;;;;;;;;21.20;1.00;;;;;;6205434;23;19912;-90
2022/07/10 11:03:32;;;;;;;;;;;20.80;1.00;;;;;;6202236;23;19916;-91
2022/07/10 11:05:59;;;;;;;;;;;20.70;1.00;;;;;;6195259;23;19938;-87
2022/07/10 11:08:39;;;;;;;;;;;20.60;1.00;;;;;;6183346;23;20342;-91
2022/07/10 11:11:21;;;;;;;;;;;20.60;1.00;;;;;;6185911;23;19923;-87
2022/07/10 11:13:53;;;;;;;;;;;20.70;1.00;;;;;;6186743;23;19916;-91
2022/07/10 11:16:20;;;;;;;;;;;20.80;1.00;;;;;;6189242;23;19916;-88
2022/07/10 11:18:53;;;;;;;;;;;21.20;1.00;;;;;;6184467;23;19916;-87
2022/07/10 11:21:23;;;;;;;;;;;21.50;1.00;;;;;;6185126;23;19991;-86
2022/07/10 11:23:58;;;;;;;;;;;21.80;1.00;;;;;;6185724;23;19923;-87
2022/07/10 11:26:31;;;;;;;;;;;22.10;1.00;;;;;;6211652;23;19904;-92
2022/07/10 11:28:59;;;;;;;;;;;22.30;1.00;;;;;;6180439;23;19916;-86
2022/07/10 11:31:44;;;;;;;;;;;22.60;1.00;;;;;;6194642;23;19920;-90
2022/07/10 11:34:12;;;;;;;;;;;22.70;99.90;;;;;;6183499;23;19920;-86
2022/07/10 11:36:39;;;;;;;;;;;22.60;99.90;;;;;;6185486;23;19920;-86
2022/07/10 11:39:07;;;;;;;;;;;22.40;99.90;;;;;;6183547;23;19916;-85
2022/07/10 11:41:43;;;;;;;;;;;22.10;99.90;;;;;;6191785;23;19916;-91
2022/07/10 11:44:14;;;;;;;;;;;22.20;99.90;;;;;;6208789;23;19984;-86
2022/07/10 11:46:43;;;;;;;;;;;22.50;99.90;;;;;;6184821;23;20335;-85
2022/07/10 11:49:17;;;;;;;;;;;22.60;99.90;;;;;;6197381;23;19900;-93
2022/07/10 11:51:53;;;;;;;;;;;22.80;99.90;;;;;;6212523;23;19960;-91
2022/07/10 11:54:27;;;;;;;;;;;22.70;99.90;;;;;;6213045;23;19900;-91
2022/07/10 11:56:57;;;;;;;;;;;22.50;99.90;;;;;;6212452;23;19916;-89
2022/07/10 11:59:25;;;;;;;;;;;22.40;99.90;;;;;;6206026;23;19916;-89
2022/07/10 12:01:52;;;;;;;;;;;22.40;99.90;;;;;;6185011;23;19923;-86
2022/07/10 12:04:23;;;;;;;;;;;22.50;99.90;;;;;;6185332;23;19927;-85
2022/07/10 12:06:51;;;;;;;;;;;22.60;99.90;;;;;;6185285;23;19923;-88
2022/07/10 12:09:22;;;;;;;;;;;22.50;99.90;;;;;;6185313;23;19917;-91
2022/07/10 12:12:03;;;;;;;;;;;22.40;99.90;;;;;;6208208;23;19915;-90
2022/07/10 12:14:29;;;;;;;;;;;22.40;99.90;;;;;;6190956;23;19916;-86
2022/07/10 12:16:57;;;;;;;;;;;22.40;99.90;;;;;;6184741;23;19923;-86
2022/07/10 12:19:36;;;;;;;;;;;22.40;99.90;;;;;;6195957;23;19900;-89
2022/07/10 12:22:03;;;;;;;;;;;22.60;99.90;;;;;;6186319;23;20251;-85
2022/07/10 12:24:30;;;;;;;;;;;22.70;99.90;;;;;;6185048;23;19916;-86
2022/07/10 12:27:11;;;;;;;;;;;22.80;99.90;;;;;;6187376;23;20315;-88
2022/07/10 12:30:06;;;;;;;;;;;22.80;99.90;;;;;;6191516;23;19916;-88
2022/07/10 12:32:34;;;;;;;;;;;22.80;99.90;;;;;;6210210;23;19998;-88
2022/07/10 12:35:45;;;;;;;;;;;;;;;;;;;;;
2022/07/10 12:38:16;;;;;;;227.93;211.43;;;22.60;99.90;;;;;;6187977;23;20261;-85
2022/07/10 12:40:43;;;;;;;217.00;203.10;;;22.70;99.90;;;;;;6189210;23;20172;-86
2022/07/10 12:43:11;;;;;;;239.82;224.27;;;22.70;99.90;;;;;;6192014;23;20340;-85
2022/07/10 12:45:38;;;;;;;228.40;213.23;;;22.70;99.90;;;;;;6191040;23;20248;-85
2022/07/10 12:48:06;;;;;;;232.80;217.48;;;22.90;99.90;;;;;;6193860;23;20251;-84
2022/07/10 12:50:35;;;;;;;195.80;183.30;;;23.10;99.90;;;;;;6193739;23;20174;-85
2022/07/10 12:53:09;;;;;;;149.50;140.05;;;23.20;99.90;;;;;;6199268;23;20169;-87
2022/07/10 12:55:38;;;;;;;;;;;23.10;99.90;;;;;;6190591;23;19922;-89
2022/07/10 12:58:08;;;;;;;;;;;22.90;99.90;;;;;;6190674;23;19916;-86
2022/07/10 13:00:35;;;;;;;;;;;22.60;99.90;;;;;;6184995;23;19915;-85
2022/07/10 13:03:03;;;;;;;;;;;22.50;99.90;;;;;;6190648;23;19971;-84
2022/07/10 13:05:32;;;;;;;;;;;22.30;99.90;;;;;;6198025;23;19916;-84
2022/07/10 13:08:08;;;;;;;;;;;22.40;99.90;;;;;;6186055;23;19924;-85
2022/07/10 13:10:36;;;;;;;;;;;22.30;99.90;;;;;;6195003;23;19943;-85
2022/07/10 13:13:03;;;;;;;;;;;22.30;99.90;;;;;;6194064;23;19916;-87
2022/07/10 13:15:30;;;;;;;;;;;22.30;99.90;;;;;;6188090;23;19916;-83
2022/07/10 13:17:57;;;;;;;;;;;22.40;99.90;;;;;;6192024;23;19916;-86
2022/07/10 13:20:24;;;;;;;;;;;22.40;99.90;;;;;;6194441;23;19923;-87
2022/07/10 13:22:51;;;;;;;;;;;22.40;99.90;;;;;;6186325;23;19976;-83
2022/07/10 13:25:19;;;;;;;;;;;22.50;99.90;;;;;;6188839;23;19916;-83
2022/07/10 13:27:46;;;;;;;;;;;22.70;99.90;;;;;;6194306;23;19916;-84